createdAt,value
2023-05-20T00:04:42.966Z,101656.97
2023-05-20T00:10:06.011Z,101652.84
2023-05-20T00:15:12.537Z,101656.97
2023-05-20T00:20:23.858Z,101651.16
2023-05-20T00:25:30.929Z,101658.81
2023-05-20T00:30:40.813Z,101646.84
2023-05-20T00:35:49.973Z,101653.66
2023-05-20T00:40:52.016Z,101655.66
2023-05-20T00:45:55.163Z,101646.56
2023-05-20T00:50:57.261Z,101647.97
2023-05-20T00:55:59.813Z,101633.97
2023-05-20T01:01:02.114Z,101633.13
2023-05-20T01:06:04.198Z,101627.56
2023-05-20T01:11:18.955Z,101622.44
2023-05-20T01:16:25.872Z,101626.38
2023-05-20T01:21:30.636Z,101629.44
2023-05-20T01:26:32.290Z,101627.19
2023-05-20T01:31:40.888Z,101615.47
2023-05-20T01:36:46.074Z,101614.00
2023-05-20T01:41:49.137Z,101614.94
2023-05-20T01:46:50.868Z,101613.28
2023-05-20T01:51:54.974Z,101613.44
2023-05-20T01:56:57.175Z,101603.59
2023-05-20T02:01:58.854Z,101598.38
2023-05-20T02:07:00.484Z,101600.69
2023-05-20T02:12:02.437Z,101591.22
2023-05-20T02:17:04.255Z,101597.00
2023-05-20T02:22:07.228Z,101589.56
2023-05-20T02:27:09.012Z,101588.75
2023-05-20T02:32:10.840Z,101595.53
2023-05-20T02:37:13.421Z,101591.03
2023-05-20T02:42:17.731Z,101586.06
2023-05-20T02:47:23.203Z,101585.66
2023-05-20T02:52:37.522Z,101587.63
2023-05-20T02:57:41.053Z,101580.41
2023-05-20T03:08:10.748Z,101568.38
2023-05-20T03:13:13.203Z,101559.88
2023-05-20T03:18:14.869Z,101564.44
2023-05-20T03:23:20.192Z,101560.28
2023-05-20T03:28:37.141Z,101564.81
2023-05-20T03:33:39.482Z,101564.63
2023-05-20T03:49:16.110Z,101561.38
2023-05-20T03:54:22.008Z,101571.44
2023-05-20T03:59:31.366Z,101570.72
2023-05-20T04:04:39.751Z,101570.91
2023-05-20T04:15:14.296Z,101564.00
2023-05-20T04:20:33.028Z,101566.16
2023-05-20T04:25:38.603Z,101561.31
2023-05-20T04:41:34.242Z,101570.72
2023-05-20T04:46:36.116Z,101563.63
2023-05-20T04:51:38.092Z,101568.75
2023-05-20T04:56:55.785Z,101570.50
2023-05-20T05:01:57.540Z,101576.31
2023-05-20T05:06:59.276Z,101569.41
2023-05-20T05:12:01.159Z,101575.38
2023-05-20T05:17:03.194Z,101567.91
2023-05-20T05:22:09.342Z,101558.88
2023-05-20T05:27:15.781Z,101554.81
2023-05-20T05:32:18.807Z,101556.88
2023-05-20T05:37:20.925Z,101551.06
2023-05-20T05:42:23.820Z,101549.19
2023-05-20T05:47:27.272Z,101538.22
2023-05-20T05:52:28.823Z,101535.09
2023-05-20T05:57:34.096Z,101534.00
2023-05-20T06:02:54.231Z,101536.84
2023-05-20T06:07:56.289Z,101531.69
2023-05-20T06:13:00.584Z,101527.81
2023-05-20T06:18:05.344Z,101523.28
2023-05-20T06:23:18.197Z,101522.84
2023-05-20T06:28:20.948Z,101526.19
2023-05-20T06:33:27.393Z,101513.66
2023-05-20T06:38:29.648Z,101522.41
2023-05-20T06:43:31.526Z,101524.44
2023-05-20T06:48:33.075Z,101511.50
2023-05-20T06:53:34.849Z,101522.31
2023-05-20T06:58:36.487Z,101516.88
2023-05-20T07:15:08.283Z,101512.16
2023-05-20T07:25:27.009Z,101501.31
2023-05-20T07:30:28.874Z,101484.63
2023-05-20T07:35:30.395Z,101492.75
2023-05-20T07:40:31.965Z,101482.69
2023-05-20T07:45:36.281Z,101478.78
2023-05-20T07:50:38.186Z,101476.13
2023-05-20T07:55:50.746Z,101483.44
2023-05-20T08:00:52.665Z,101478.56
2023-05-20T08:06:11.466Z,101481.22
2023-05-20T08:11:13.566Z,101480.66
2023-05-20T08:16:23.577Z,101482.03
2023-05-20T08:21:26.266Z,101468.25
2023-05-20T08:26:28.717Z,101472.34
2023-05-20T08:43:13.232Z,101472.91
2023-05-20T08:48:34.316Z,101465.81
2023-05-20T08:59:49.389Z,101456.41
2023-05-20T09:05:09.792Z,101453.16
2023-05-20T09:10:14.216Z,101450.50
2023-05-20T09:15:16.197Z,101458.66
2023-05-20T09:20:18.454Z,101459.25
2023-05-20T09:25:23.884Z,101462.03
2023-05-20T09:30:28.534Z,101468.94
2023-05-20T09:35:34.219Z,101444.13
2023-05-20T09:40:37.133Z,101442.38
2023-05-20T09:46:00.189Z,101449.88
2023-05-20T09:51:05.558Z,101444.63
2023-05-20T09:56:12.897Z,101429.50
2023-05-20T10:01:35.364Z,101447.66
2023-05-20T10:07:20.948Z,101437.41
2023-05-20T10:13:00.696Z,101436.00
2023-05-20T10:18:38.437Z,101425.50
2023-05-20T10:23:40.505Z,101430.19
2023-05-20T10:28:57.390Z,101434.47
2023-05-20T10:34:01.219Z,101433.91
2023-05-20T10:44:49.510Z,101443.31
2023-05-20T10:50:54.771Z,101430.94
2023-05-20T11:01:34.820Z,101430.38
2023-05-20T11:18:36.902Z,101426.38
2023-05-20T11:24:11.601Z,101421.47
2023-05-20T11:30:10.504Z,101414.22
2023-05-20T11:35:26.026Z,101409.88
2023-05-20T11:40:38.953Z,101405.94
2023-05-20T11:46:00.212Z,101400.03
2023-05-20T11:51:02.355Z,101401.59
2023-05-20T11:56:04.491Z,101404.53
2023-05-20T12:01:23.024Z,101395.78
2023-05-20T12:06:25.604Z,101381.78
2023-05-20T12:11:36.901Z,101390.69
2023-05-20T12:16:52.072Z,101376.38
2023-05-20T12:21:53.907Z,101367.25
2023-05-20T12:26:55.436Z,101363.94
2023-05-20T12:32:03.400Z,101357.16
2023-05-20T12:37:05.588Z,101349.72
2023-05-20T12:42:07.421Z,101347.88
2023-05-20T12:47:10.302Z,101349.63
2023-05-20T12:52:22.484Z,101345.63
2023-05-20T12:57:25.331Z,101342.44
2023-05-20T13:02:27.619Z,101333.13
2023-05-20T13:07:32.647Z,101334.16
2023-05-20T13:12:42.057Z,101333.31
2023-05-20T13:28:20.912Z,101320.84
2023-05-20T13:33:22.917Z,101314.28
2023-05-20T13:38:26.819Z,101316.22
2023-05-20T13:43:33.851Z,101321.38
2023-05-20T13:48:36.034Z,101311.00
2023-05-20T13:53:49.074Z,101307.78
2023-05-20T13:58:52.508Z,101292.38
2023-05-20T14:03:54.615Z,101285.69
2023-05-20T14:09:12.936Z,101297.25
2023-05-20T14:14:36.345Z,101287.75
2023-05-20T14:19:41.994Z,101290.56
2023-05-20T14:24:49.647Z,101273.75
2023-05-20T14:36:23.618Z,101263.69
2023-05-20T14:41:33.195Z,101259.38
2023-05-20T14:46:37.754Z,101260.03
2023-05-20T14:57:12.627Z,101258.19
2023-05-20T15:02:15.771Z,101249.78
2023-05-20T15:07:22.993Z,101258.22
2023-05-20T15:12:32.520Z,101256.59
2023-05-20T15:18:15.060Z,101260.53
2023-05-20T15:23:10.223Z,101262.19
2023-05-20T15:28:25.487Z,101268.91
2023-05-20T15:33:32.652Z,101275.00
2023-05-20T15:38:43.385Z,101265.38
2023-05-20T15:44:00.103Z,101271.81
2023-05-20T15:49:05.405Z,101272.63
2023-05-20T15:54:19.389Z,101270.97
2023-05-20T15:59:23.002Z,101269.13
2023-05-20T16:04:28.118Z,101260.41
2023-05-20T16:09:30.006Z,101260.34
2023-05-20T16:14:32.168Z,101256.63
2023-05-20T16:19:33.899Z,101250.22
2023-05-20T16:24:35.976Z,101259.66
2023-05-20T16:29:39.108Z,101256.31
2023-05-20T16:34:41.369Z,101255.41
2023-05-20T16:39:43.423Z,101257.34
2023-05-20T16:44:48.073Z,101257.94
2023-05-20T16:49:49.914Z,101263.84
2023-05-20T16:54:51.346Z,101274.38
2023-05-20T16:59:58.950Z,101284.38
2023-05-20T17:05:02.205Z,101277.13
2023-05-20T17:10:04.149Z,101278.56
2023-05-20T17:15:08.130Z,101280.19
2023-05-20T17:20:16.371Z,101271.47
2023-05-20T17:25:20.967Z,101276.97
2023-05-20T17:30:22.872Z,101265.56
2023-05-20T17:35:24.536Z,101271.13
2023-05-20T17:40:28.601Z,101270.50
2023-05-20T17:45:30.637Z,101271.31
2023-05-20T17:50:32.510Z,101266.56
2023-05-20T17:55:42.692Z,101277.84
2023-05-20T18:00:44.885Z,101281.44
2023-05-20T18:05:47.508Z,101280.13
2023-05-20T18:10:49.504Z,101287.53
2023-05-20T18:15:51.359Z,101276.78
2023-05-20T18:20:53.355Z,101282.31
2023-05-20T18:25:55.251Z,101280.91
2023-05-20T18:30:57.132Z,101280.41
2023-05-20T18:36:07.670Z,101280.09
2023-05-20T18:41:09.534Z,101288.03
2023-05-20T18:46:11.445Z,101282.13
2023-05-20T18:51:13.604Z,101284.19
2023-05-20T18:56:15.624Z,101271.03
2023-05-20T19:01:20.747Z,101281.94
2023-05-20T19:06:22.515Z,101271.78
2023-05-20T19:11:24.429Z,101278.31
2023-05-20T19:16:26.608Z,101281.63
2023-05-20T19:21:31.575Z,101279.53
2023-05-20T19:26:33.524Z,101282.69
2023-05-20T19:31:35.628Z,101292.53
2023-05-20T19:36:41.714Z,101304.19
2023-05-20T19:41:43.830Z,101303.69
2023-05-20T19:46:45.729Z,101300.69
2023-05-20T19:51:50.296Z,101306.31
2023-05-20T19:56:51.752Z,101298.22
2023-05-20T20:01:53.944Z,101302.81
2023-05-20T20:06:56.017Z,101306.66
2023-05-20T20:11:57.927Z,101300.81
2023-05-20T20:17:00.163Z,101296.72
2023-05-20T20:22:02.516Z,101295.19
2023-05-20T20:27:05.320Z,101291.94
2023-05-20T20:32:11.786Z,101279.09
2023-05-20T20:37:14.598Z,101276.75
2023-05-20T20:42:16.297Z,101277.78
2023-05-20T20:47:25.578Z,101270.16
2023-05-20T20:52:27.461Z,101272.72
2023-05-20T20:57:31.958Z,101273.75
2023-05-20T21:02:36.693Z,101264.97
2023-05-20T21:07:38.851Z,101259.47
2023-05-20T21:12:46.062Z,101262.34
2023-05-20T21:17:48.163Z,101261.22
2023-05-20T21:22:54.246Z,101247.91
2023-05-20T21:27:57.114Z,101244.56
2023-05-20T21:33:01.877Z,101248.59
2023-05-20T21:38:04.770Z,101251.88
2023-05-20T21:43:06.550Z,101239.81
2023-05-20T21:48:17.130Z,101242.34
2023-05-20T21:53:24.404Z,101238.31
2023-05-20T21:58:26.151Z,101243.69
2023-05-20T22:03:28.003Z,101237.50
2023-05-20T22:08:32.810Z,101232.63
2023-05-20T22:13:38.705Z,101224.88
2023-05-20T22:18:41.677Z,101220.78
2023-05-20T22:23:44.106Z,101217.50
2023-05-20T22:28:46.035Z,101216.69
2023-05-20T22:33:48.133Z,101208.03
2023-05-20T22:38:50.333Z,101201.78
2023-05-20T22:43:52.207Z,101203.50
2023-05-20T22:48:53.985Z,101200.59
2023-05-20T22:53:59.505Z,101194.03
2023-05-20T22:59:01.651Z,101189.78
2023-05-20T23:04:04.010Z,101191.41
2023-05-20T23:09:05.793Z,101181.72
2023-05-20T23:14:07.660Z,101172.44
2023-05-20T23:19:09.321Z,101165.28
2023-05-20T23:24:21.489Z,101156.84
2023-05-20T23:29:23.421Z,101163.28
2023-05-20T23:34:27.836Z,101158.50
2023-05-20T23:39:37.617Z,101145.91
2023-05-20T23:44:39.314Z,101145.84
2023-05-20T23:49:44.260Z,101139.66
2023-05-20T23:54:46.392Z,101125.72
2023-05-20T23:59:50.685Z,101126.19
